Time;durP1;ratioP1;P1;durP2;ratioP2;P2;SDS_P1;SDS_P2;PMS_P1;PMS_P2;Temp;Humidity;BMP_temperature;BMP_pressure;BME280_temperature;BME280_humidity;BME280_pressure;Samples;Min_cycle;Max_cycle;Signal;HPM_P1;HPM_P2
2023/08/07 00:00:15;;;;;;;8.02;5.22;;;;;;;;;;5134705;27;20039;-71
2023/08/07 00:02:41;;;;;;;10.15;6.57;;;;;;;;;;5134508;27;20038;-73
2023/08/07 00:05:07;;;;;;;5.78;5.18;;;;;;;;;;5134818;27;20042;-74
2023/08/07 00:07:33;;;;;;;6.68;5.97;;;;;;;;;;5134224;27;20464;-73
2023/08/07 00:10:01;;;;;;;8.15;6.22;;;;;;;;;;5116237;27;20103;-73
2023/08/07 00:12:27;;;;;;;8.05;5.35;;;;;;;;;;5134282;27;20043;-72
2023/08/07 00:14:53;;;;;;;10.70;5.85;;;;;;;;;;5134357;27;20031;-73
2023/08/07 00:17:19;;;;;;;6.82;6.13;;;;;;;;;;5134386;27;20119;-73
2023/08/07 00:19:45;;;;;;;7.07;5.95;;;;;;;;;;5134074;27;20080;-72
2023/08/07 00:22:11;;;;;;;6.00;5.50;;;;;;;;;;5115827;27;20046;-71
2023/08/07 00:24:37;;;;;;;8.32;6.13;;;;;;;;;;5133968;27;20043;-73
2023/08/07 00:27:03;;;;;;;7.32;6.00;;;;;;;;;;5134228;27;20509;-73
2023/08/07 00:29:29;;;;;;;6.60;6.00;;;;;;;;;;5134218;27;20070;-72
2023/08/07 00:31:55;;;;;;;6.78;6.25;;;;;;;;;;5133796;27;20035;-72
2023/08/07 00:34:21;;;;;;;11.00;6.30;;;;;;;;;;5134075;27;20039;-73
2023/08/07 00:36:49;;;;;;;8.88;5.85;;;;;;;;;;5098583;27;20058;-73
2023/08/07 00:39:15;;;;;;;7.20;6.60;;;;;;;;;;5115667;27;20035;-71
2023/08/07 00:41:41;;;;;;;6.45;5.85;;;;;;;;;;5133595;27;20027;-73
2023/08/07 00:44:08;;;;;;;6.72;5.75;;;;;;;;;;5098223;27;20058;-73
2023/08/07 00:46:35;;;;;;;6.35;5.75;;;;;;;;;;5115467;27;20031;-72
2023/08/07 00:49:01;;;;;;;7.20;6.53;;;;;;;;;;5115363;27;20047;-74
2023/08/07 00:51:26;;;;;;;6.80;6.10;;;;;;;;;;5133901;27;20040;-73
2023/08/07 00:53:53;;;;;;;10.65;6.35;;;;;;;;;;5115022;27;20099;-73
2023/08/07 00:56:19;;;;;;;7.47;6.45;;;;;;;;;;5115154;27;20122;-73
2023/08/07 00:58:45;;;;;;;13.07;6.63;;;;;;;;;;5115046;27;20035;-73
2023/08/07 01:01:11;;;;;;;7.03;6.45;;;;;;;;;;5115600;27;20034;-73
2023/08/07 01:03:37;;;;;;;7.35;6.32;;;;;;;;;;5114699;27;20054;-73
2023/08/07 01:06:03;;;;;;;8.38;6.95;;;;;;;;;;5134549;27;20066;-74
2023/08/07 01:08:30;;;;;;;6.95;6.30;;;;;;;;;;5137911;27;20039;-75
2023/08/07 01:11:07;;;;;;;11.05;6.93;;;;;;;;;;5134350;27;20027;-73
2023/08/07 01:13:42;;;;;;;8.65;6.30;;;;;;;;;;5114756;27;20054;-73
2023/08/07 01:16:10;;;;;;;7.25;6.50;;;;;;;;;;5133316;27;20027;-73
2023/08/07 01:18:37;;;;;;;9.05;6.45;;;;;;;;;;5114707;27;20035;-74
2023/08/07 01:21:03;;;;;;;7.30;6.15;;;;;;;;;;5097862;27;20501;-73
2023/08/07 01:23:30;;;;;;;6.65;6.05;;;;;;;;;;5133061;27;20065;-73
2023/08/07 01:25:56;;;;;;;7.57;6.88;;;;;;;;;;5132877;27;20111;-73
2023/08/07 01:28:25;;;;;;;6.75;6.28;;;;;;;;;;5132967;27;20077;-73
2023/08/07 01:30:53;;;;;;;8.10;6.18;;;;;;;;;;5132770;27;20122;-73
2023/08/07 01:33:27;;;;;;;8.00;6.35;;;;;;;;;;5132941;27;20035;-73
2023/08/07 01:35:53;;;;;;;9.70;6.70;;;;;;;;;;5132709;27;20126;-74
2023/08/07 01:38:20;;;;;;;7.07;6.38;;;;;;;;;;5132852;27;20031;-73
2023/08/07 01:40:46;;;;;;;7.10;6.47;;;;;;;;;;5114388;27;20066;-73
2023/08/07 01:43:11;;;;;;;7.47;6.72;;;;;;;;;;5114362;27;20043;-73
2023/08/07 01:45:38;;;;;;;6.75;6.10;;;;;;;;;;5132684;27;20039;-73
2023/08/07 01:48:04;;;;;;;8.00;6.85;;;;;;;;;;5114470;27;20071;-73
2023/08/07 01:50:30;;;;;;;9.55;6.95;;;;;;;;;;5097375;27;20525;-72
2023/08/07 01:52:56;;;;;;;7.53;6.55;;;;;;;;;;5132161;27;20042;-73
2023/08/07 01:55:23;;;;;;;13.20;7.72;;;;;;;;;;5132404;27;20027;-72
2023/08/07 01:57:50;;;;;;;10.98;7.57;;;;;;;;;;5132213;27;20043;-73
2023/08/07 02:00:17;;;;;;;16.10;7.82;;;;;;;;;;5114227;27;20536;-72
2023/08/07 02:02:44;;;;;;;14.68;8.13;;;;;;;;;;5132174;27;20066;-73
2023/08/07 02:05:10;;;;;;;12.90;8.20;;;;;;;;;;5132596;27;20405;-72
2023/08/07 02:07:36;;;;;;;15.50;7.95;;;;;;;;;;5114250;27;20031;-73
2023/08/07 02:10:03;;;;;;;12.82;7.15;;;;;;;;;;5114364;27;20409;-72
2023/08/07 02:12:32;;;;;;;8.10;7.47;;;;;;;;;;5115317;27;20047;-73
2023/08/07 02:15:00;;;;;;;8.05;7.00;;;;;;;;;;5142610;27;20136;-73
2023/08/07 02:17:32;;;;;;;12.48;6.45;;;;;;;;;;5145853;27;20027;-73
2023/08/07 02:19:58;;;;;;;7.78;6.97;;;;;;;;;;5136854;27;20039;-74
2023/08/07 02:22:24;;;;;;;11.52;7.40;;;;;;;;;;5132090;27;20038;-73
2023/08/07 02:24:51;;;;;;;7.10;6.50;;;;;;;;;;5113707;27;20575;-73
2023/08/07 02:27:17;;;;;;;8.00;7.25;;;;;;;;;;5113733;27;20039;-73
2023/08/07 02:29:43;;;;;;;7.88;5.85;;;;;;;;;;5096396;27;20519;-72
2023/08/07 02:32:09;;;;;;;11.73;6.30;;;;;;;;;;5096676;27;20038;-73
2023/08/07 02:34:35;;;;;;;9.02;6.60;;;;;;;;;;5113446;27;20039;-74
2023/08/07 02:37:01;;;;;;;7.85;6.68;;;;;;;;;;5131762;27;21010;-73
2023/08/07 02:39:27;;;;;;;13.15;6.70;;;;;;;;;;5131839;27;20035;-73
2023/08/07 02:41:53;;;;;;;7.10;5.65;;;;;;;;;;5113347;27;20062;-73
2023/08/07 02:44:20;;;;;;;6.80;6.20;;;;;;;;;;5131673;27;20085;-73
2023/08/07 02:46:46;;;;;;;9.73;6.50;;;;;;;;;;5131396;27;20038;-73
2023/08/07 02:49:11;;;;;;;9.70;6.07;;;;;;;;;;5131479;27;20408;-73
2023/08/07 02:51:37;;;;;;;9.82;5.88;;;;;;;;;;5113414;27;20035;-73
2023/08/07 02:54:03;;;;;;;9.75;5.97;;;;;;;;;;5095987;27;20523;-73
2023/08/07 02:56:30;;;;;;;6.47;5.53;;;;;;;;;;5131508;27;20031;-74
2023/08/07 02:58:58;;;;;;;6.85;5.32;;;;;;;;;;5113161;27;20039;-72
2023/08/07 03:01:24;;;;;;;7.43;5.38;;;;;;;;;;5131849;27;20035;-74
2023/08/07 03:03:51;;;;;;;8.80;5.55;;;;;;;;;;5112753;27;20168;-72
2023/08/07 03:06:16;;;;;;;7.10;5.60;;;;;;;;;;5131629;27;20067;-72
2023/08/07 03:08:43;;;;;;;7.40;5.43;;;;;;;;;;5131373;27;20027;-73
2023/08/07 03:11:09;;;;;;;5.55;5.15;;;;;;;;;;5113131;27;20565;-75
2023/08/07 03:13:35;;;;;;;7.50;6.10;;;;;;;;;;5112825;28;20078;-73
2023/08/07 03:16:01;;;;;;;8.25;5.07;;;;;;;;;;5131026;27;20070;-73
2023/08/07 03:18:27;;;;;;;5.90;5.40;;;;;;;;;;5131263;27;20028;-74
2023/08/07 03:20:54;;;;;;;6.78;5.20;;;;;;;;;;5131143;27;20035;-72
2023/08/07 03:23:20;;;;;;;6.25;5.65;;;;;;;;;;5112496;27;20080;-72
2023/08/07 03:25:46;;;;;;;5.18;4.78;;;;;;;;;;5130810;27;20039;-73
2023/08/07 03:28:12;;;;;;;7.30;5.35;;;;;;;;;;5130989;27;20054;-75
2023/08/07 03:30:38;;;;;;;5.72;5.22;;;;;;;;;;5099182;27;20043;-72
2023/08/07 03:33:04;;;;;;;6.13;5.43;;;;;;;;;;5116549;27;20035;-73
2023/08/07 03:35:31;;;;;;;6.90;5.47;;;;;;;;;;5116937;27;20042;-73
2023/08/07 03:37:57;;;;;;;7.28;4.70;;;;;;;;;;5116594;27;20039;-73
2023/08/07 03:40:24;;;;;;;6.35;5.15;;;;;;;;;;5135348;27;20035;-73
2023/08/07 03:42:50;;;;;;;6.95;4.82;;;;;;;;;;5099736;27;20034;-74
2023/08/07 03:45:17;;;;;;;5.68;5.18;;;;;;;;;;5135117;27;20035;-73
2023/08/07 03:47:42;;;;;;;6.47;5.18;;;;;;;;;;5116464;27;20062;-72
2023/08/07 03:50:09;;;;;;;9.95;5.38;;;;;;;;;;5116574;27;20046;-73
2023/08/07 03:52:35;;;;;;;8.73;5.15;;;;;;;;;;5134963;27;20023;-74
2023/08/07 03:55:02;;;;;;;9.95;5.85;;;;;;;;;;5134650;27;20035;-75
2023/08/07 03:57:29;;;;;;;4.88;3.55;;;;;;;;;;5134757;27;20031;-75
2023/08/07 03:59:56;;;;;;;7.43;4.70;;;;;;;;;;5099500;27;20041;-72
2023/08/07 04:02:23;;;;;;;8.82;5.35;;;;;;;;;;5117494;27;20505;-75
2023/08/07 04:04:49;;;;;;;8.27;5.13;;;;;;;;;;5118609;27;20079;-75
2023/08/07 04:07:15;;;;;;;5.50;5.00;;;;;;;;;;5140180;27;20462;-73
2023/08/07 04:09:41;;;;;;;10.88;4.82;;;;;;;;;;5136570;27;20088;-74
2023/08/07 04:12:07;;;;;;;4.25;3.95;;;;;;;;;;5134131;27;20031;-75
2023/08/07 04:14:33;;;;;;;4.95;4.55;;;;;;;;;;5134383;27;20067;-76
2023/08/07 04:17:00;;;;;;;4.03;3.83;;;;;;;;;;5116308;27;20035;-74
2023/08/07 04:19:26;;;;;;;6.03;4.82;;;;;;;;;;5134478;27;20505;-75
2023/08/07 04:21:53;;;;;;;9.80;5.00;;;;;;;;;;5116045;27;20497;-72
2023/08/07 04:24:19;;;;;;;5.80;3.80;;;;;;;;;;5115941;27;20046;-73
2023/08/07 04:26:45;;;;;;;6.53;3.95;;;;;;;;;;5134299;27;20103;-73
2023/08/07 04:29:11;;;;;;;5.45;3.88;;;;;;;;;;5115691;27;20046;-75
2023/08/07 04:31:37;;;;;;;5.43;4.53;;;;;;;;;;5115754;27;20035;-74
2023/08/07 04:34:03;;;;;;;4.47;3.95;;;;;;;;;;5133687;27;20031;-74
2023/08/07 04:36:29;;;;;;;5.15;4.07;;;;;;;;;;5134115;27;20027;-75
2023/08/07 04:38:55;;;;;;;9.52;4.00;;;;;;;;;;5133953;27;20031;-74
2023/08/07 04:41:21;;;;;;;8.10;4.65;;;;;;;;;;5133199;27;20090;-75
2023/08/07 04:43:48;;;;;;;4.50;4.18;;;;;;;;;;5134128;27;20534;-75
2023/08/07 04:46:14;;;;;;;8.32;4.68;;;;;;;;;;5115996;27;20057;-75
2023/08/07 04:48:40;;;;;;;8.95;4.03;;;;;;;;;;5134388;27;20043;-74
2023/08/07 04:51:06;;;;;;;5.00;4.60;;;;;;;;;;5135529;27;20023;-74
2023/08/07 04:53:32;;;;;;;4.32;3.92;;;;;;;;;;5135945;27;20039;-74
2023/08/07 04:56:01;;;;;;;4.72;4.32;;;;;;;;;;5137102;27;20536;-76
2023/08/07 04:58:27;;;;;;;8.85;4.50;;;;;;;;;;5136754;27;20043;-76
2023/08/07 05:00:56;;;;;;;5.40;3.67;;;;;;;;;;5117117;27;20042;-75
2023/08/07 05:03:23;;;;;;;5.30;3.85;;;;;;;;;;5117541;27;20041;-73
2023/08/07 05:05:48;;;;;;;4.97;3.80;;;;;;;;;;5115851;27;20039;-75
2023/08/07 05:08:14;;;;;;;13.93;4.15;;;;;;;;;;5133401;27;20033;-73
2023/08/07 05:10:40;;;;;;;5.60;3.70;;;;;;;;;;5133450;27;20110;-73
2023/08/07 05:13:06;;;;;;;7.22;3.40;;;;;;;;;;5133067;27;20051;-74
2023/08/07 05:15:32;;;;;;;5.28;4.20;;;;;;;;;;5133697;27;20409;-76
2023/08/07 05:17:58;;;;;;;10.00;4.00;;;;;;;;;;5118486;27;20039;-74
2023/08/07 05:20:24;;;;;;;10.10;3.90;;;;;;;;;;5138268;27;20023;-75
2023/08/07 05:22:50;;;;;;;4.78;3.97;;;;;;;;;;5137103;27;20043;-75
2023/08/07 05:25:18;;;;;;;5.22;3.85;;;;;;;;;;5138094;27;20160;-74
2023/08/07 05:27:45;;;;;;;4.15;3.47;;;;;;;;;;5138155;27;20031;-74
2023/08/07 05:30:11;;;;;;;6.75;4.10;;;;;;;;;;5098747;27;20113;-74
2023/08/07 05:32:37;;;;;;;4.40;3.28;;;;;;;;;;5097664;27;20552;-75
2023/08/07 05:35:04;;;;;;;8.75;4.15;;;;;;;;;;5114294;27;20118;-74
2023/08/07 05:37:31;;;;;;;9.80;3.70;;;;;;;;;;5114491;27;20042;-74
2023/08/07 05:39:57;;;;;;;3.42;2.45;;;;;;;;;;5113989;27;20035;-74
2023/08/07 05:42:23;;;;;;;8.60;3.45;;;;;;;;;;5114364;27;20050;-73
2023/08/07 05:44:49;;;;;;;4.30;3.00;;;;;;;;;;5097288;27;20084;-75
2023/08/07 05:47:15;;;;;;;3.80;3.38;;;;;;;;;;5114304;27;20084;-74
2023/08/07 05:49:42;;;;;;;2.78;2.58;;;;;;;;;;5097250;27;20045;-75
2023/08/07 05:52:08;;;;;;;9.90;3.50;;;;;;;;;;5132163;27;20035;-76
2023/08/07 05:54:34;;;;;;;7.78;3.28;;;;;;;;;;5113421;27;20074;-75
2023/08/07 05:57:00;;;;;;;5.72;3.40;;;;;;;;;;5113937;27;20038;-75
2023/08/07 05:59:27;;;;;;;5.85;3.20;;;;;;;;;;5114100;27;20043;-74
2023/08/07 06:01:53;;;;;;;3.08;2.80;;;;;;;;;;5132577;27;20054;-75
2023/08/07 06:04:19;;;;;;;4.20;2.60;;;;;;;;;;5131884;27;20083;-75
2023/08/07 06:06:45;;;;;;;5.05;2.80;;;;;;;;;;5132381;27;20042;-76
2023/08/07 06:09:12;;;;;;;4.38;3.38;;;;;;;;;;5132181;27;20450;-75
2023/08/07 06:11:38;;;;;;;6.15;3.03;;;;;;;;;;5132266;27;20083;-74
2023/08/07 06:14:04;;;;;;;8.23;3.38;;;;;;;;;;5131558;27;20082;-74
2023/08/07 06:16:30;;;;;;;2.70;2.50;;;;;;;;;;5132162;27;20254;-75
2023/08/07 06:18:57;;;;;;;3.85;3.53;;;;;;;;;;5113602;27;20130;-75
2023/08/07 06:21:23;;;;;;;11.45;3.78;;;;;;;;;;5132067;27;20046;-75
2023/08/07 06:23:49;;;;;;;7.72;2.92;;;;;;;;;;5131914;27;20043;-75
2023/08/07 06:26:15;;;;;;;5.15;3.03;;;;;;;;;;5131866;27;20031;-75
2023/08/07 06:28:41;;;;;;;4.18;2.65;;;;;;;;;;5131879;27;20039;-75
2023/08/07 06:31:08;;;;;;;11.43;3.25;;;;;;;;;;5113464;27;20050;-76
2023/08/07 06:33:35;;;;;;;4.38;2.63;;;;;;;;;;5113656;27;20443;-77
2023/08/07 06:36:01;;;;;;;4.75;3.00;;;;;;;;;;5096400;27;20031;-76
2023/08/07 06:38:27;;;;;;;4.20;2.75;;;;;;;;;;5113343;27;20039;-76
2023/08/07 06:40:53;;;;;;;4.05;2.50;;;;;;;;;;5131923;27;20116;-76
2023/08/07 06:43:19;;;;;;;5.20;2.33;;;;;;;;;;5112883;27;20031;-75
2023/08/07 06:45:49;;;;;;;4.70;2.72;;;;;;;;;;5131521;27;20412;-76
2023/08/07 06:48:15;;;;;;;3.03;1.85;;;;;;;;;;5131322;27;20027;-76
2023/08/07 06:50:41;;;;;;;2.38;2.20;;;;;;;;;;5131618;27;20035;-75
2023/08/07 06:53:07;;;;;;;2.55;2.22;;;;;;;;;;5113098;27;20130;-77
2023/08/07 06:55:33;;;;;;;2.38;2.17;;;;;;;;;;5131770;27;20038;-76
2023/08/07 06:57:59;;;;;;;4.75;2.45;;;;;;;;;;5132297;27;20031;-76
2023/08/07 07:00:25;;;;;;;2.10;2.00;;;;;;;;;;5132552;27;20031;-76
2023/08/07 07:02:51;;;;;;;5.88;2.63;;;;;;;;;;5131927;27;20035;-76
2023/08/07 07:05:17;;;;;;;8.90;2.42;;;;;;;;;;5132162;27;20047;-76
2023/08/07 07:07:43;;;;;;;2.95;2.47;;;;;;;;;;5136782;27;20035;-75
2023/08/07 07:10:09;;;;;;;7.43;2.70;;;;;;;;;;5131890;27;20053;-76
2023/08/07 07:12:36;;;;;;;11.48;6.88;;;;;;;;;;5112744;27;20508;-76
2023/08/07 07:15:02;;;;;;;5.53;2.78;;;;;;;;;;5131223;27;20067;-76
2023/08/07 07:17:31;;;;;;;6.22;2.60;;;;;;;;;;5131285;27;20121;-76
2023/08/07 07:19:58;;;;;;;9.23;5.38;;;;;;;;;;5131145;27;20031;-76
2023/08/07 07:22:23;;;;;;;1.90;1.80;;;;;;;;;;5130875;27;20049;-76
2023/08/07 07:24:49;;;;;;;5.22;2.30;;;;;;;;;;5112694;27;20042;-76
2023/08/07 07:27:16;;;;;;;6.18;2.25;;;;;;;;;;5130830;27;20057;-75
2023/08/07 07:29:42;;;;;;;5.38;2.60;;;;;;;;;;5131046;27;20035;-76
2023/08/07 07:32:08;;;;;;;2.90;2.45;;;;;;;;;;5131293;27;20035;-76
2023/08/07 07:34:34;;;;;;;3.22;1.95;;;;;;;;;;5130983;27;20041;-75
2023/08/07 07:37:00;;;;;;;7.82;2.35;;;;;;;;;;5131022;27;20027;-76
2023/08/07 07:39:26;;;;;;;6.93;2.30;;;;;;;;;;5130968;27;20042;-75
2023/08/07 07:41:53;;;;;;;7.07;2.40;;;;;;;;;;5131156;27;20091;-75
2023/08/07 07:44:19;;;;;;;4.35;2.53;;;;;;;;;;5130581;27;20489;-76
2023/08/07 07:46:45;;;;;;;5.82;2.88;;;;;;;;;;5130939;27;20031;-76
2023/08/07 07:49:11;;;;;;;9.18;2.35;;;;;;;;;;5130644;27;20039;-76
2023/08/07 07:51:37;;;;;;;5.95;1.80;;;;;;;;;;5130820;27;20534;-77
2023/08/07 07:54:04;;;;;;;1.52;1.52;;;;;;;;;;5130614;27;20130;-75
2023/08/07 07:56:30;;;;;;;11.70;2.55;;;;;;;;;;5130962;27;20031;-76
2023/08/07 07:58:55;;;;;;;3.97;2.38;;;;;;;;;;5130812;27;20031;-75
2023/08/07 08:01:23;;;;;;;2.53;1.85;;;;;;;;;;5112327;28;20031;-76
2023/08/07 08:03:49;;;;;;;2.45;2.03;;;;;;;;;;5130709;27;20049;-76
2023/08/07 08:06:15;;;;;;;2.92;1.70;;;;;;;;;;5112352;27;20122;-76
2023/08/07 08:08:42;;;;;;;7.35;2.60;;;;;;;;;;5130803;27;20544;-75
2023/08/07 08:11:08;;;;;;;2.33;2.22;;;;;;;;;;5130737;27;20046;-77
2023/08/07 08:13:35;;;;;;;2.70;1.73;;;;;;;;;;5130602;27;20055;-75
2023/08/07 08:16:01;;;;;;;8.90;2.20;;;;;;;;;;5113180;27;20126;-76
2023/08/07 08:18:27;;;;;;;5.90;2.15;;;;;;;;;;5116092;27;20577;-75
2023/08/07 08:20:54;;;;;;;7.47;1.70;;;;;;;;;;5134878;27;20043;-76
2023/08/07 08:23:20;;;;;;;7.97;2.00;;;;;;;;;;5134393;27;20087;-76
2023/08/07 08:25:46;;;;;;;1.48;1.38;;;;;;;;;;5134671;27;20043;-77
2023/08/07 08:28:12;;;;;;;2.50;1.95;;;;;;;;;;5135091;27;20508;-76
2023/08/07 08:30:38;;;;;;;10.60;2.20;;;;;;;;;;5136604;27;20043;-74
2023/08/07 08:33:05;;;;;;;2.53;1.70;;;;;;;;;;5125021;27;20042;-77
2023/08/07 08:35:31;;;;;;;6.93;1.83;;;;;;;;;;5143000;27;20039;-77
2023/08/07 08:37:57;;;;;;;6.13;2.03;;;;;;;;;;5145807;27;20119;-76
2023/08/07 08:40:24;;;;;;;5.90;2.05;;;;;;;;;;5141158;27;20062;-74
2023/08/07 08:42:50;;;;;;;7.47;2.40;;;;;;;;;;5134060;27;20027;-77
2023/08/07 08:45:16;;;;;;;6.97;1.98;;;;;;;;;;5133805;27;20035;-76
2023/08/07 08:47:43;;;;;;;2.70;2.38;;;;;;;;;;5133922;27;20063;-77
2023/08/07 08:50:13;;;;;;;7.13;2.38;;;;;;;;;;5133701;27;20066;-76
2023/08/07 08:52:40;;;;;;;3.47;2.20;;;;;;;;;;5133849;27;20117;-76
2023/08/07 08:55:07;;;;;;;6.60;1.95;;;;;;;;;;5099012;27;20031;-76
2023/08/07 08:57:34;;;;;;;2.75;1.88;;;;;;;;;;5134199;27;20045;-76
2023/08/07 09:00:00;;;;;;;1.70;1.60;;;;;;;;;;5115346;27;20035;-77
2023/08/07 09:02:26;;;;;;;2.75;2.00;;;;;;;;;;5115177;27;20096;-75
2023/08/07 09:04:52;;;;;;;3.22;1.73;;;;;;;;;;5133625;27;20035;-76
2023/08/07 09:07:18;;;;;;;4.15;1.80;;;;;;;;;;5133928;27;20032;-76
2023/08/07 09:09:44;;;;;;;2.97;2.00;;;;;;;;;;5134749;27;20649;-75
2023/08/07 09:12:19;;;;;;;9.05;2.05;;;;;;;;;;5132860;27;20064;-75
2023/08/07 09:14:47;;;;;;;3.83;2.15;;;;;;;;;;5133255;27;20122;-75
2023/08/07 09:17:13;;;;;;;5.55;1.95;;;;;;;;;;5097775;27;20058;-75
2023/08/07 09:19:39;;;;;;;1.85;1.70;;;;;;;;;;5114615;27;20489;-76
2023/08/07 09:22:06;;;;;;;4.00;1.88;;;;;;;;;;5133344;27;20050;-76
2023/08/07 09:24:32;;;;;;;8.82;1.85;;;;;;;;;;5133109;27;20047;-76
2023/08/07 09:26:58;;;;;;;6.30;2.40;;;;;;;;;;5133080;27;20122;-75
2023/08/07 09:29:24;;;;;;;12.05;2.30;;;;;;;;;;5132769;27;20539;-76
2023/08/07 09:31:50;;;;;;;6.28;2.50;;;;;;;;;;5114476;27;20030;-75
2023/08/07 09:34:19;;;;;;;4.63;2.20;;;;;;;;;;5132609;27;20099;-76
2023/08/07 09:36:45;;;;;;;2.33;2.13;;;;;;;;;;5132903;27;20114;-75
2023/08/07 09:39:11;;;;;;;7.40;3.38;;;;;;;;;;5132547;27;20042;-76
2023/08/07 09:41:38;;;;;;;5.88;1.98;;;;;;;;;;5132786;27;20031;-74
2023/08/07 09:44:10;;;;;;;2.63;2.10;;;;;;;;;;5114313;27;20047;-76
2023/08/07 09:46:43;;;;;;;5.90;1.63;;;;;;;;;;5132710;27;20488;-74
2023/08/07 09:49:09;;;;;;;3.10;2.05;;;;;;;;;;5114319;27;20092;-77
2023/08/07 09:51:41;;;;;;;2.28;2.08;;;;;;;;;;5132818;27;20111;-75
2023/08/07 09:54:07;;;;;;;3.83;2.10;;;;;;;;;;5132748;27;20039;-76
2023/08/07 09:56:34;;;;;;;1.75;1.67;;;;;;;;;;5132536;27;20500;-75
2023/08/07 09:59:00;;;;;;;5.78;2.30;;;;;;;;;;5114200;27;20127;-75
2023/08/07 10:01:26;;;;;;;2.65;2.22;;;;;;;;;;5132249;27;20081;-75
2023/08/07 10:03:53;;;;;;;9.07;2.20;;;;;;;;;;5132661;27;20039;-76
2023/08/07 10:06:19;;;;;;;3.17;1.70;;;;;;;;;;5134798;27;20062;-75
2023/08/07 10:08:45;;;;;;;3.67;2.30;;;;;;;;;;5133335;27;20031;-76
2023/08/07 10:11:13;;;;;;;3.90;1.95;;;;;;;;;;5132033;27;20035;-76
2023/08/07 10:13:40;;;;;;;1.88;1.77;;;;;;;;;;5131671;27;20107;-75
2023/08/07 10:16:06;;;;;;;1.50;1.40;;;;;;;;;;5132038;27;20031;-75
2023/08/07 10:18:32;;;;;;;2.60;1.98;;;;;;;;;;5131954;27;20038;-76
2023/08/07 10:20:58;;;;;;;10.35;2.70;;;;;;;;;;5113815;27;20568;-77
2023/08/07 10:23:25;;;;;;;4.80;2.10;;;;;;;;;;5113589;27;20031;-74
2023/08/07 10:25:51;;;;;;;6.07;2.20;;;;;;;;;;5113697;27;20039;-75
2023/08/07 10:28:18;;;;;;;2.22;2.13;;;;;;;;;;5131708;27;20042;-74
2023/08/07 10:30:44;;;;;;;3.33;2.47;;;;;;;;;;5113590;27;20081;-74
2023/08/07 10:33:11;;;;;;;5.30;2.17;;;;;;;;;;5113678;27;20031;-77
2023/08/07 10:35:37;;;;;;;2.25;2.08;;;;;;;;;;5113293;27;20621;-75
2023/08/07 10:38:09;;;;;;;2.63;2.20;;;;;;;;;;5131703;27;20031;-74
2023/08/07 10:40:54;;;;;;;3.97;2.22;;;;;;;;;;5112181;27;20039;-75
2023/08/07 10:43:20;;;;;;;5.25;2.20;;;;;;;;;;5131227;27;20031;-74
2023/08/07 10:45:46;;;;;;;2.70;2.50;;;;;;;;;;5131377;27;20043;-77
2023/08/07 10:48:12;;;;;;;2.72;2.22;;;;;;;;;;5131480;27;20451;-75
2023/08/07 10:51:02;;;;;;;3.10;2.25;;;;;;;;;;5113095;27;20315;-75
2023/08/07 10:53:28;;;;;;;;;;;;;;;;;;5113476;27;20083;-76
2023/08/07 10:55:57;;;;;;;5.05;2.42;;;;;;;;;;5112785;27;20320;-75
2023/08/07 10:58:27;;;;;;;2.33;2.05;;;;;;;;;;5131069;27;20075;-75
2023/08/07 11:00:52;;;;;;;;;;;;;;;;;;5131749;27;20023;-76
2023/08/07 11:03:28;;;;;;;1.98;1.88;;;;;;;;;;5130928;27;19926;-75
2023/08/07 11:05:54;;;;;;;3.67;2.20;;;;;;;;;;5131140;27;20039;-75
2023/08/07 11:08:23;;;;;;;4.22;2.70;;;;;;;;;;5096036;27;20042;-74
2023/08/07 11:10:52;;;;;;;8.15;2.75;;;;;;;;;;5113260;27;20042;-75
2023/08/07 11:13:18;;;;;;;2.13;2.03;;;;;;;;;;5112971;27;20051;-75
2023/08/07 11:15:45;;;;;;;3.50;2.28;;;;;;;;;;5132545;27;20039;-75
2023/08/07 11:18:11;;;;;;;2.70;2.22;;;;;;;;;;5132211;27;20039;-74
2023/08/07 11:20:38;;;;;;;2.40;2.20;;;;;;;;;;5113116;27;20027;-73
2023/08/07 11:23:04;;;;;;;2.72;2.53;;;;;;;;;;5132307;27;20034;-75
2023/08/07 11:25:30;;;;;;;2.80;2.60;;;;;;;;;;5114015;28;20035;-74
2023/08/07 11:27:56;;;;;;;6.50;3.15;;;;;;;;;;5132990;27;20023;-76
2023/08/07 11:30:22;;;;;;;3.20;2.58;;;;;;;;;;5132385;27;20135;-75
2023/08/07 11:32:49;;;;;;;5.45;2.65;;;;;;;;;;5133642;27;20092;-76
2023/08/07 11:35:15;;;;;;;3.03;2.60;;;;;;;;;;5133417;27;20041;-74
2023/08/07 11:37:47;;;;;;;3.22;2.47;;;;;;;;;;5133637;28;20032;-76
2023/08/07 11:40:13;;;;;;;2.60;2.40;;;;;;;;;;5133880;27;20062;-76
2023/08/07 11:42:42;;;;;;;5.70;2.60;;;;;;;;;;5133934;27;20118;-74
2023/08/07 11:45:08;;;;;;;4.72;2.58;;;;;;;;;;5134413;27;20046;-76
2023/08/07 11:47:34;;;;;;;2.13;1.90;;;;;;;;;;5115650;27;20039;-75
2023/08/07 11:50:01;;;;;;;2.65;2.40;;;;;;;;;;5137355;27;20031;-76
2023/08/07 11:52:29;;;;;;;5.97;2.30;;;;;;;;;;5122223;27;20035;-76
2023/08/07 11:54:55;;;;;;;2.20;2.10;;;;;;;;;;5140205;27;20037;-77
2023/08/07 11:57:21;;;;;;;6.22;2.65;;;;;;;;;;5116712;27;20040;-76
2023/08/07 11:59:50;;;;;;;3.13;2.60;;;;;;;;;;5134740;27;20053;-76
2023/08/07 12:02:16;;;;;;;6.65;2.95;;;;;;;;;;5116839;27;20031;-76
2023/08/07 12:04:42;;;;;;;5.97;2.60;;;;;;;;;;5134551;27;20038;-75
2023/08/07 12:07:10;;;;;;;2.38;2.17;;;;;;;;;;5116363;27;20414;-75
2023/08/07 12:09:36;;;;;;;6.10;2.88;;;;;;;;;;5116171;27;20518;-76
2023/08/07 12:12:02;;;;;;;5.35;2.45;;;;;;;;;;5116315;27;20059;-75
2023/08/07 12:14:29;;;;;;;4.00;2.45;;;;;;;;;;5134210;27;20055;-75
2023/08/07 12:16:55;;;;;;;3.55;2.53;;;;;;;;;;5116220;27;20027;-74
2023/08/07 12:19:21;;;;;;;5.70;2.80;;;;;;;;;;5134166;27;20035;-77
2023/08/07 12:21:46;;;;;;;4.70;2.75;;;;;;;;;;5116070;27;20031;-75
2023/08/07 12:24:12;;;;;;;2.67;2.20;;;;;;;;;;5134380;27;20047;-76
2023/08/07 12:26:38;;;;;;;3.83;3.05;;;;;;;;;;5134174;27;20386;-75
2023/08/07 12:29:05;;;;;;;2.60;2.40;;;;;;;;;;5134292;27;20035;-76
2023/08/07 12:31:31;;;;;;;2.40;2.30;;;;;;;;;;5115675;27;20046;-76
2023/08/07 12:33:57;;;;;;;2.50;2.30;;;;;;;;;;5116126;27;20039;-75
2023/08/07 12:36:23;;;;;;;3.13;2.50;;;;;;;;;;5133812;27;20035;-74
2023/08/07 12:38:49;;;;;;;4.32;3.20;;;;;;;;;;5134123;27;20072;-75
2023/08/07 12:41:15;;;;;;;3.15;2.90;;;;;;;;;;5133898;27;20104;-75
2023/08/07 12:43:41;;;;;;;3.55;2.50;;;;;;;;;;5133539;27;20035;-76
2023/08/07 12:46:06;;;;;;;2.92;2.72;;;;;;;;;;5134355;27;20050;-76
2023/08/07 12:48:32;;;;;;;3.25;2.95;;;;;;;;;;5116438;27;20038;-75
2023/08/07 12:50:59;;;;;;;4.18;2.95;;;;;;;;;;5116496;27;20038;-75
2023/08/07 12:53:24;;;;;;;2.35;2.25;;;;;;;;;;5134385;27;20031;-75
2023/08/07 12:55:50;;;;;;;4.32;3.10;;;;;;;;;;5134970;27;20476;-76
2023/08/07 12:58:18;;;;;;;3.20;2.70;;;;;;;;;;5135256;27;20419;-76
2023/08/07 13:00:44;;;;;;;7.88;2.72;;;;;;;;;;5134121;27;20042;-77
2023/08/07 13:03:10;;;;;;;3.92;2.40;;;;;;;;;;5134925;27;20122;-77
2023/08/07 13:05:36;;;;;;;4.20;2.53;;;;;;;;;;5084237;27;20122;-76
2023/08/07 13:08:03;;;;;;;3.10;2.67;;;;;;;;;;5135157;27;20031;-76
2023/08/07 13:10:31;;;;;;;2.92;2.40;;;;;;;;;;5133933;27;20050;-75
2023/08/07 13:12:57;;;;;;;5.07;2.28;;;;;;;;;;5133233;27;20513;-76
2023/08/07 13:15:25;;;;;;;3.08;2.88;;;;;;;;;;5132835;27;20042;-75
2023/08/07 13:17:50;;;;;;;2.35;2.22;;;;;;;;;;5115067;27;20035;-75
2023/08/07 13:20:17;;;;;;;5.80;2.85;;;;;;;;;;5132981;27;20034;-76
2023/08/07 13:22:44;;;;;;;3.95;2.60;;;;;;;;;;5132519;27;20544;-75
2023/08/07 13:25:10;;;;;;;7.22;2.88;;;;;;;;;;5133654;27;20047;-74
2023/08/07 13:27:36;;;;;;;6.75;2.70;;;;;;;;;;5115036;27;20035;-74
2023/08/07 13:30:02;;;;;;;5.97;2.65;;;;;;;;;;5132882;27;20115;-77
2023/08/07 13:32:35;;;;;;;3.90;2.38;;;;;;;;;;5132696;27;20031;-75
2023/08/07 13:35:02;;;;;;;4.07;2.90;;;;;;;;;;5132962;27;20046;-76
2023/08/07 13:37:33;;;;;;;5.88;3.03;;;;;;;;;;5132651;27;20523;-76
2023/08/07 13:40:00;;;;;;;2.92;2.30;;;;;;;;;;5132930;27;20039;-75
2023/08/07 13:42:27;;;;;;;3.00;2.60;;;;;;;;;;5114024;27;20528;-75
2023/08/07 13:44:54;;;;;;;2.47;2.30;;;;;;;;;;5132582;27;20039;-75
2023/08/07 13:47:20;;;;;;;2.40;2.30;;;;;;;;;;5132626;27;20603;-75
2023/08/07 13:49:47;;;;;;;3.05;2.85;;;;;;;;;;5132197;27;20505;-74
2023/08/07 13:52:13;;;;;;;4.20;2.00;;;;;;;;;;5114480;27;20050;-76
2023/08/07 13:54:39;;;;;;;2.38;2.17;;;;;;;;;;5113769;27;20032;-77
2023/08/07 13:57:06;;;;;;;6.10;2.45;;;;;;;;;;5132605;27;20042;-76
2023/08/07 13:59:32;;;;;;;2.45;2.20;;;;;;;;;;5114007;27;20389;-76
2023/08/07 14:01:59;;;;;;;2.47;2.28;;;;;;;;;;5132465;27;20023;-75
2023/08/07 14:04:26;;;;;;;3.10;2.60;;;;;;;;;;5132047;27;20050;-76
2023/08/07 14:06:52;;;;;;;5.65;2.70;;;;;;;;;;5132290;27;20042;-76
2023/08/07 14:09:21;;;;;;;3.13;2.83;;;;;;;;;;5114051;27;20043;-75
2023/08/07 14:11:48;;;;;;;9.38;2.67;;;;;;;;;;5131841;27;20057;-77
2023/08/07 14:14:14;;;;;;;4.63;2.83;;;;;;;;;;5131088;27;20104;-75
2023/08/07 14:16:41;;;;;;;2.47;2.38;;;;;;;;;;5131678;27;20035;-76
2023/08/07 14:19:06;;;;;;;9.40;2.97;;;;;;;;;;5113776;27;20412;-75
2023/08/07 14:21:33;;;;;;;7.90;2.90;;;;;;;;;;5131660;27;20117;-76
2023/08/07 14:23:59;;;;;;;5.43;2.58;;;;;;;;;;5132000;27;20042;-74
2023/08/07 14:26:25;;;;;;;7.05;2.90;;;;;;;;;;5131750;27;20027;-76
2023/08/07 14:28:51;;;;;;;3.40;2.42;;;;;;;;;;5131924;27;20066;-77
2023/08/07 14:31:17;;;;;;;3.08;2.55;;;;;;;;;;5131719;27;20092;-76
2023/08/07 14:33:43;;;;;;;2.53;2.33;;;;;;;;;;5131666;27;20035;-76
2023/08/07 14:36:09;;;;;;;3.10;2.50;;;;;;;;;;5113544;27;20099;-75
2023/08/07 14:38:35;;;;;;;3.75;2.78;;;;;;;;;;5113234;27;20451;-76